sensor_id;sensor_type;location;lat;lon;timestamp;pressure;altitude;pressure_sealevel;temperature;humidity
7441;BME280;29616;51.950;8.572;2023-06-01T00:01:30;100610.44;;;11.90;100.00
7441;BME280;29616;51.950;8.572;2023-06-01T00:04:01;100605.31;;;11.77;100.00
7441;BME280;29616;51.950;8.572;2023-06-01T00:06:31;100616.84;;;11.81;100.00
7441;BME280;29616;51.950;8.572;2023-06-01T00:09:02;100611.53;;;11.70;100.00
7441;BME280;29616;51.950;8.572;2023-06-01T00:11:31;100617.88;;;11.70;100.00
7441;BME280;29616;51.950;8.572;2023-06-01T00:14:03;100605.03;;;11.61;100.00
7441;BME280;29616;51.950;8.572;2023-06-01T00:16:31;100621.31;;;11.53;100.00
7441;BME280;29616;51.950;8.572;2023-06-01T00:19:02;100615.28;;;11.40;100.00
7441;BME280;29616;51.950;8.572;2023-06-01T00:21:31;100617.03;;;11.31;100.00
7441;BME280;29616;51.950;8.572;2023-06-01T00:24:06;100616.75;;;11.25;100.00
7441;BME280;29616;51.950;8.572;2023-06-01T00:26:36;100628.97;;;11.21;100.00
7441;BME280;29616;51.950;8.572;2023-06-01T00:29:08;100626.41;;;11.19;100.00
7441;BME280;29616;51.950;8.572;2023-06-01T00:31:37;100630.00;;;11.20;100.00
7441;BME280;29616;51.950;8.572;2023-06-01T00:34:09;100636.75;;;11.16;100.00
7441;BME280;29616;51.950;8.572;2023-06-01T00:36:38;100619.50;;;11.06;100.00
7441;BME280;29616;51.950;8.572;2023-06-01T00:39:06;100616.72;;;10.86;100.00
7441;BME280;29616;51.950;8.572;2023-06-01T00:41:35;100640.94;;;11.01;100.00
7441;BME280;29616;51.950;8.572;2023-06-01T00:44:04;100640.22;;;10.99;100.00
7441;BME280;29616;51.950;8.572;2023-06-01T00:46:36;100630.28;;;10.98;100.00
7441;BME280;29616;51.950;8.572;2023-06-01T00:49:06;100626.97;;;10.84;100.00
7441;BME280;29616;51.950;8.572;2023-06-01T00:51:36;100636.31;;;10.91;100.00
7441;BME280;29616;51.950;8.572;2023-06-01T00:54:06;100631.28;;;10.87;100.00
7441;BME280;29616;51.950;8.572;2023-06-01T00:56:36;100637.06;;;10.93;100.00
7441;BME280;29616;51.950;8.572;2023-06-01T00:59:06;100635.47;;;10.91;100.00
7441;BME280;29616;51.950;8.572;2023-06-01T01:01:36;100638.75;;;10.94;100.00
7441;BME280;29616;51.950;8.572;2023-06-01T01:04:05;100633.03;;;10.88;100.00
7441;BME280;29616;51.950;8.572;2023-06-01T01:06:45;100634.31;;;10.93;100.00
7441;BME280;29616;51.950;8.572;2023-06-01T01:09:28;100608.53;;;10.77;100.00
7441;BME280;29616;51.950;8.572;2023-06-01T01:12:07;100630.56;;;10.85;100.00
7441;BME280;29616;51.950;8.572;2023-06-01T01:14:45;100633.56;;;10.82;100.00
7441;BME280;29616;51.950;8.572;2023-06-01T01:17:26;100644.66;;;10.80;100.00
7441;BME280;29616;51.950;8.572;2023-06-01T01:20:06;100646.09;;;10.84;100.00
7441;BME280;29616;51.950;8.572;2023-06-01T01:22:52;100623.47;;;10.73;100.00
7441;BME280;29616;51.950;8.572;2023-06-01T01:25:52;100640.91;;;10.81;100.00
7441;BME280;29616;51.950;8.572;2023-06-01T01:28:35;100645.09;;;10.85;100.00
7441;BME280;29616;51.950;8.572;2023-06-01T01:31:05;100652.88;;;10.80;100.00
7441;BME280;29616;51.950;8.572;2023-06-01T01:33:39;100631.84;;;10.71;100.00
7441;BME280;29616;51.950;8.572;2023-06-01T01:36:10;100626.38;;;10.71;100.00
7441;BME280;29616;51.950;8.572;2023-06-01T01:38:40;100641.50;;;10.85;100.00
7441;BME280;29616;51.950;8.572;2023-06-01T01:41:08;100645.97;;;10.95;100.00
7441;BME280;29616;51.950;8.572;2023-06-01T01:43:41;100630.13;;;10.89;100.00
7441;BME280;29616;51.950;8.572;2023-06-01T01:46:22;100645.53;;;11.00;100.00
7441;BME280;29616;51.950;8.572;2023-06-01T01:49:04;100627.41;;;10.80;100.00
7441;BME280;29616;51.950;8.572;2023-06-01T01:51:44;100633.72;;;11.00;100.00
7441;BME280;29616;51.950;8.572;2023-06-01T01:54:15;100643.38;;;11.04;100.00
7441;BME280;29616;51.950;8.572;2023-06-01T01:56:46;100640.22;;;10.99;100.00
7441;BME280;29616;51.950;8.572;2023-06-01T01:59:19;100649.44;;;11.17;100.00
7441;BME280;29616;51.950;8.572;2023-06-01T02:01:48;100652.91;;;11.19;100.00
7441;BME280;29616;51.950;8.572;2023-06-01T02:04:17;100642.81;;;11.19;100.00
7441;BME280;29616;51.950;8.572;2023-06-01T02:06:48;100621.50;;;11.04;100.00
7441;BME280;29616;51.950;8.572;2023-06-01T02:09:16;100648.41;;;11.18;100.00
7441;BME280;29616;51.950;8.572;2023-06-01T02:11:45;100651.03;;;11.19;100.00
7441;BME280;29616;51.950;8.572;2023-06-01T02:14:13;100624.53;;;11.10;100.00
7441;BME280;29616;51.950;8.572;2023-06-01T02:16:44;100634.72;;;11.18;100.00
7441;BME280;29616;51.950;8.572;2023-06-01T02:19:14;100624.25;;;11.13;100.00
7441;BME280;29616;51.950;8.572;2023-06-01T02:21:44;100626.84;;;11.15;100.00
7441;BME280;29616;51.950;8.572;2023-06-01T02:24:15;100635.59;;;11.18;100.00
7441;BME280;29616;51.950;8.572;2023-06-01T02:26:46;100632.47;;;11.23;100.00
7441;BME280;29616;51.950;8.572;2023-06-01T02:29:16;100634.72;;;11.18;100.00
7441;BME280;29616;51.950;8.572;2023-06-01T02:31:49;100632.47;;;11.23;100.00
7441;BME280;29616;51.950;8.572;2023-06-01T02:34:19;100628.28;;;11.19;100.00
7441;BME280;29616;51.950;8.572;2023-06-01T02:36:49;100636.47;;;11.19;100.00
7441;BME280;29616;51.950;8.572;2023-06-01T02:39:19;100646.56;;;11.09;100.00
7441;BME280;29616;51.950;8.572;2023-06-01T02:41:49;100644.53;;;11.11;100.00
7441;BME280;29616;51.950;8.572;2023-06-01T02:44:20;100601.34;;;10.85;100.00
7441;BME280;29616;51.950;8.572;2023-06-01T02:46:51;100646.84;;;11.06;100.00
7441;BME280;29616;51.950;8.572;2023-06-01T02:49:21;100632.88;;;11.09;100.00
7441;BME280;29616;51.950;8.572;2023-06-01T02:51:50;100631.16;;;11.17;100.00
7441;BME280;29616;51.950;8.572;2023-06-01T02:54:20;100635.75;;;11.17;100.00
7441;BME280;29616;51.950;8.572;2023-06-01T02:56:52;100640.50;;;11.24;100.00
7441;BME280;29616;51.950;8.572;2023-06-01T02:59:46;100623.38;;;11.13;100.00
7441;BME280;29616;51.950;8.572;2023-06-01T03:02:18;100644.38;;;11.31;100.00
7441;BME280;29616;51.950;8.572;2023-06-01T03:04:46;100634.59;;;11.29;100.00
7441;BME280;29616;51.950;8.572;2023-06-01T03:07:16;100630.00;;;11.29;100.00
7441;BME280;29616;51.950;8.572;2023-06-01T03:09:52;100632.28;;;11.34;100.00
7441;BME280;29616;51.950;8.572;2023-06-01T03:12:44;100631.59;;;11.41;100.00
7441;BME280;29616;51.950;8.572;2023-06-01T03:15:14;100640.78;;;11.40;100.00
7441;BME280;29616;51.950;8.572;2023-06-01T03:17:45;100642.25;;;11.35;100.00
7441;BME280;29616;51.950;8.572;2023-06-01T03:20:15;100634.00;;;11.44;100.00
7441;BME280;29616;51.950;8.572;2023-06-01T03:22:46;100617.75;;;11.43;100.00
7441;BME280;29616;51.950;8.572;2023-06-01T03:25:19;100637.63;;;11.54;100.00
7441;BME280;29616;51.950;8.572;2023-06-01T03:27:49;100626.66;;;11.54;100.00
7441;BME280;29616;51.950;8.572;2023-06-01T03:30:18;100627.53;;;11.45;100.00
7441;BME280;29616;51.950;8.572;2023-06-01T03:32:50;100633.44;;;11.50;100.00
7441;BME280;29616;51.950;8.572;2023-06-01T03:35:19;100615.88;;;11.43;100.00
7441;BME280;29616;51.950;8.572;2023-06-01T03:37:49;100629.25;;;11.56;100.00
7441;BME280;29616;51.950;8.572;2023-06-01T03:40:20;100622.63;;;11.49;100.00
7441;BME280;29616;51.950;8.572;2023-06-01T03:42:48;100626.50;;;11.56;100.00
7441;BME280;29616;51.950;8.572;2023-06-01T03:45:19;100629.25;;;11.56;100.00
7441;BME280;29616;51.950;8.572;2023-06-01T03:47:50;100620.75;;;11.59;100.00
7441;BME280;29616;51.950;8.572;2023-06-01T03:50:18;100612.97;;;11.54;100.00
7441;BME280;29616;51.950;8.572;2023-06-01T03:52:50;100625.94;;;11.62;100.00
7441;BME280;29616;51.950;8.572;2023-06-01T03:55:19;100611.38;;;11.71;100.00
7441;BME280;29616;51.950;8.572;2023-06-01T03:58:03;100632.81;;;11.66;100.00
7441;BME280;29616;51.950;8.572;2023-06-01T04:00:35;100619.00;;;11.77;100.00
7441;BME280;29616;51.950;8.572;2023-06-01T04:03:06;100623.47;;;11.78;100.00
7441;BME280;29616;51.950;8.572;2023-06-01T04:05:36;100621.00;;;11.85;100.00
7441;BME280;29616;51.950;8.572;2023-06-01T04:08:06;100626.34;;;11.77;100.00
7441;BME280;29616;51.950;8.572;2023-06-01T04:10:37;100636.59;;;11.75;100.00
7441;BME280;29616;51.950;8.572;2023-06-01T04:13:07;100641.03;;;11.66;100.00
7441;BME280;29616;51.950;8.572;2023-06-01T04:15:36;100619.75;;;11.60;100.00
7441;BME280;29616;51.950;8.572;2023-06-01T04:18:08;100636.19;;;11.60;100.00
7441;BME280;29616;51.950;8.572;2023-06-01T04:20:51;100637.88;;;11.61;100.00
7441;BME280;29616;51.950;8.572;2023-06-01T04:23:21;100632.97;;;11.65;100.00
7441;BME280;29616;51.950;8.572;2023-06-01T04:25:50;100615.16;;;11.70;100.00
7441;BME280;29616;51.950;8.572;2023-06-01T04:28:19;100622.31;;;11.81;100.00
7441;BME280;29616;51.950;8.572;2023-06-01T04:30:49;100633.53;;;11.87;100.00
7441;BME280;29616;51.950;8.572;2023-06-01T04:33:22;100630.63;;;11.98;100.00
7441;BME280;29616;51.950;8.572;2023-06-01T04:35:53;100623.44;;;11.97;100.00
7441;BME280;29616;51.950;8.572;2023-06-01T04:38:26;100630.91;;;11.95;100.00
7441;BME280;29616;51.950;8.572;2023-06-01T04:40:59;100637.25;;;11.96;100.00
7441;BME280;29616;51.950;8.572;2023-06-01T04:43:29;100632.94;;;11.93;100.00
7441;BME280;29616;51.950;8.572;2023-06-01T04:45:59;100627.16;;;11.96;100.00
7441;BME280;29616;51.950;8.572;2023-06-01T04:48:32;100630.03;;;12.04;100.00
7441;BME280;29616;51.950;8.572;2023-06-01T04:51:03;100630.66;;;12.26;100.00
7441;BME280;29616;51.950;8.572;2023-06-01T04:53:35;100628.50;;;12.29;100.00
7441;BME280;29616;51.950;8.572;2023-06-01T04:56:05;100636.25;;;12.34;100.00
7441;BME280;29616;51.950;8.572;2023-06-01T04:58:33;100630.56;;;12.45;100.00
7441;BME280;29616;51.950;8.572;2023-06-01T05:01:02;100633.03;;;12.48;100.00
7441;BME280;29616;51.950;8.572;2023-06-01T05:03:34;100628.47;;;12.56;100.00
7441;BME280;29616;51.950;8.572;2023-06-01T05:06:02;100619.81;;;12.61;100.00
7441;BME280;29616;51.950;8.572;2023-06-01T05:08:33;100621.69;;;12.60;100.00
7441;BME280;29616;51.950;8.572;2023-06-01T05:11:07;100618.56;;;12.73;100.00
7441;BME280;29616;51.950;8.572;2023-06-01T05:13:38;100616.38;;;12.76;100.00
7441;BME280;29616;51.950;8.572;2023-06-01T05:16:09;100633.16;;;12.91;100.00
7441;BME280;29616;51.950;8.572;2023-06-01T05:18:40;100616.47;;;13.02;100.00
7441;BME280;29616;51.950;8.572;2023-06-01T05:21:10;100636.09;;;13.07;100.00
7441;BME280;29616;51.950;8.572;2023-06-01T05:23:39;100637.22;;;13.14;100.00
7441;BME280;29616;51.950;8.572;2023-06-01T05:26:11;100627.94;;;12.98;100.00
7441;BME280;29616;51.950;8.572;2023-06-01T05:28:41;100630.97;;;12.77;100.00
7441;BME280;29616;51.950;8.572;2023-06-01T05:31:12;100633.72;;;12.77;100.00
7441;BME280;29616;51.950;8.572;2023-06-01T05:33:47;100633.81;;;12.85;100.00
7441;BME280;29616;51.950;8.572;2023-06-01T05:36:16;100616.31;;;12.86;100.00
7441;BME280;29616;51.950;8.572;2023-06-01T05:38:45;100632.75;;;13.13;100.00
7441;BME280;29616;51.950;8.572;2023-06-01T05:41:14;100624.78;;;13.20;100.00
7441;BME280;29616;51.950;8.572;2023-06-01T05:43:44;100624.66;;;13.29;100.00
7441;BME280;29616;51.950;8.572;2023-06-01T05:46:13;100622.63;;;13.31;100.00
7441;BME280;29616;51.950;8.572;2023-06-01T05:48:45;100628.06;;;13.41;100.00
7441;BME280;29616;51.950;8.572;2023-06-01T05:51:15;100617.84;;;13.77;100.00
7441;BME280;29616;51.950;8.572;2023-06-01T05:53:46;100631.63;;;13.59;100.00
7441;BME280;29616;51.950;8.572;2023-06-01T05:56:14;100633.41;;;13.68;100.00
7441;BME280;29616;51.950;8.572;2023-06-01T05:58:45;100628.50;;;13.54;100.00
7441;BME280;29616;51.950;8.572;2023-06-01T06:01:17;100642.06;;;13.56;100.00
7441;BME280;29616;51.950;8.572;2023-06-01T06:03:47;100648.09;;;13.59;100.00
7441;BME280;29616;51.950;8.572;2023-06-01T06:06:19;100643.47;;;13.60;100.00
7441;BME280;29616;51.950;8.572;2023-06-01T06:08:51;100647.06;;;13.60;100.00
7441;BME280;29616;51.950;8.572;2023-06-01T06:11:20;100635.13;;;13.69;100.00
7441;BME280;29616;51.950;8.572;2023-06-01T06:13:49;100639.13;;;13.75;100.00
7441;BME280;29616;51.950;8.572;2023-06-01T06:16:19;100645.31;;;13.77;100.00
7441;BME280;29616;51.950;8.572;2023-06-01T06:18:48;100643.25;;;13.53;100.00
7441;BME280;29616;51.950;8.572;2023-06-01T06:21:19;100638.16;;;13.41;100.00
7441;BME280;29616;51.950;8.572;2023-06-01T06:23:49;100637.50;;;13.47;100.00
7441;BME280;29616;51.950;8.572;2023-06-01T06:26:19;100636.88;;;13.53;100.00
7441;BME280;29616;51.950;8.572;2023-06-01T06:28:47;100641.94;;;13.65;100.00
7441;BME280;29616;51.950;8.572;2023-06-01T06:31:17;100648.06;;;13.77;100.00
7441;BME280;29616;51.950;8.572;2023-06-01T06:33:46;100647.75;;;13.80;100.00
7441;BME280;29616;51.950;8.572;2023-06-01T06:36:16;100650.50;;;13.80;100.00
7441;BME280;29616;51.950;8.572;2023-06-01T06:38:46;100632.34;;;13.87;100.00
7441;BME280;29616;51.950;8.572;2023-06-01T06:41:17;100637.81;;;13.87;100.00
7441;BME280;29616;51.950;8.572;2023-06-01T06:43:45;100655.47;;;13.59;100.00
7441;BME280;29616;51.950;8.572;2023-06-01T06:46:15;100651.81;;;13.32;100.00
7441;BME280;29616;51.950;8.572;2023-06-01T06:48:43;100646.78;;;13.28;100.00
7441;BME280;29616;51.950;8.572;2023-06-01T06:51:16;100656.72;;;13.64;100.00
7441;BME280;29616;51.950;8.572;2023-06-01T06:53:47;100652.94;;;13.83;100.00
7441;BME280;29616;51.950;8.572;2023-06-01T06:56:16;100644.19;;;13.87;100.00
7441;BME280;29616;51.950;8.572;2023-06-01T06:58:45;100660.28;;;14.08;100.00
7441;BME280;29616;51.950;8.572;2023-06-01T07:01:25;100645.22;;;14.12;100.00
7441;BME280;29616;51.950;8.572;2023-06-01T07:03:57;100651.59;;;14.13;100.00
7441;BME280;29616;51.950;8.572;2023-06-01T07:06:27;100656.75;;;14.16;100.00
7441;BME280;29616;51.950;8.572;2023-06-01T07:08:58;100653.19;;;13.97;100.00
7441;BME280;29616;51.950;8.572;2023-06-01T07:11:28;100654.47;;;14.11;100.00
7441;BME280;29616;51.950;8.572;2023-06-01T07:13:57;100645.53;;;14.35;100.00
7441;BME280;29616;51.950;8.572;2023-06-01T07:16:26;100643.78;;;14.60;100.00
7441;BME280;29616;51.950;8.572;2023-06-01T07:18:56;100643.16;;;14.74;100.00
7441;BME280;29616;51.950;8.572;2023-06-01T07:21:26;100625.09;;;14.71;100.00
7441;BME280;29616;51.950;8.572;2023-06-01T07:23:58;100636.34;;;15.02;100.00
7441;BME280;29616;51.950;8.572;2023-06-01T07:26:27;100638.81;;;15.29;100.00
7441;BME280;29616;51.950;8.572;2023-06-01T07:28:57;100637.75;;;15.06;100.00
7441;BME280;29616;51.950;8.572;2023-06-01T07:31:26;100651.19;;;15.25;100.00
7441;BME280;29616;51.950;8.572;2023-06-01T07:33:57;100641.72;;;15.11;100.00
7441;BME280;29616;51.950;8.572;2023-06-01T07:36:25;100644.50;;;14.70;100.00
7441;BME280;29616;51.950;8.572;2023-06-01T07:38:54;100644.06;;;14.48;100.00
7441;BME280;29616;51.950;8.572;2023-06-01T07:41:25;100643.97;;;14.32;100.00
7441;BME280;29616;51.950;8.572;2023-06-01T07:43:55;100644.66;;;14.09;100.00
7441;BME280;29616;51.950;8.572;2023-06-01T07:46:24;100643.13;;;14.06;100.00
7441;BME280;29616;51.950;8.572;2023-06-01T07:48:54;100643.38;;;14.46;100.00
7441;BME280;29616;51.950;8.572;2023-06-01T07:51:24;100636.16;;;14.87;100.00
7441;BME280;29616;51.950;8.572;2023-06-01T07:53:53;100641.84;;;15.02;100.00
7441;BME280;29616;51.950;8.572;2023-06-01T07:56:28;100643.69;;;14.85;100.00
7441;BME280;29616;51.950;8.572;2023-06-01T07:58:58;100645.50;;;15.18;100.00
7441;BME280;29616;51.950;8.572;2023-06-01T08:01:27;100650.78;;;14.96;100.00
7441;BME280;29616;51.950;8.572;2023-06-01T08:03:57;100641.53;;;15.13;100.00
7441;BME280;29616;51.950;8.572;2023-06-01T08:06:27;100648.38;;;15.01;100.00
7441;BME280;29616;51.950;8.572;2023-06-01T08:08:56;100643.09;;;15.24;100.00
7441;BME280;29616;51.950;8.572;2023-06-01T08:11:28;100659.13;;;15.36;100.00
7441;BME280;29616;51.950;8.572;2023-06-01T08:13:58;100651.88;;;15.11;100.00
7441;BME280;29616;51.950;8.572;2023-06-01T08:16:29;100655.38;;;14.79;100.00
7441;BME280;29616;51.950;8.572;2023-06-01T08:18:59;100656.28;;;14.96;100.00
7441;BME280;29616;51.950;8.572;2023-06-01T08:21:27;100652.97;;;15.58;100.00
7441;BME280;29616;51.950;8.572;2023-06-01T08:23:58;100643.31;;;15.70;100.00
7441;BME280;29616;51.950;8.572;2023-06-01T08:26:29;100643.84;;;15.82;100.00
7441;BME280;29616;51.950;8.572;2023-06-01T08:29:00;100652.44;;;15.87;100.00
7441;BME280;29616;51.950;8.572;2023-06-01T08:31:33;100653.66;;;15.52;100.00
7441;BME280;29616;51.950;8.572;2023-06-01T08:34:02;100652.00;;;15.09;100.00
7441;BME280;29616;51.950;8.572;2023-06-01T08:36:34;100610.25;;;15.22;100.00
7441;BME280;29616;51.950;8.572;2023-06-01T08:39:20;100640.56;;;15.54;100.00
7441;BME280;29616;51.950;8.572;2023-06-01T08:42:05;100641.22;;;15.40;100.00
7441;BME280;29616;51.950;8.572;2023-06-01T08:44:39;100641.19;;;15.16;100.00
7441;BME280;29616;51.950;8.572;2023-06-01T08:47:09;100652.25;;;15.32;100.00
7441;BME280;29616;51.950;8.572;2023-06-01T08:49:41;100645.25;;;15.78;100.00
7441;BME280;29616;51.950;8.572;2023-06-01T08:52:13;100635.88;;;16.11;100.00
7441;BME280;29616;51.950;8.572;2023-06-01T08:54:44;100636.38;;;16.23;100.00
7441;BME280;29616;51.950;8.572;2023-06-01T08:57:16;100643.59;;;16.24;100.00
7441;BME280;29616;51.950;8.572;2023-06-01T08:59:46;100622.47;;;15.84;100.00
7441;BME280;29616;51.950;8.572;2023-06-01T09:02:16;100639.00;;;15.92;100.00
7441;BME280;29616;51.950;8.572;2023-06-01T09:04:44;100642.97;;;15.49;100.00
7441;BME280;29616;51.950;8.572;2023-06-01T09:07:14;100634.72;;;15.57;100.00
7441;BME280;29616;51.950;8.572;2023-06-01T09:09:44;100631.94;;;15.98;100.00
7441;BME280;29616;51.950;8.572;2023-06-01T09:12:21;100631.28;;;16.43;100.00
7441;BME280;29616;51.950;8.572;2023-06-01T09:15:09;100632.41;;;16.17;100.00
7441;BME280;29616;51.950;8.572;2023-06-01T09:17:40;100630.81;;;16.39;100.00
7441;BME280;29616;51.950;8.572;2023-06-01T09:20:12;100618.13;;;16.61;100.00
7441;BME280;29616;51.950;8.572;2023-06-01T09:22:44;100626.56;;;16.12;100.00
7441;BME280;29616;51.950;8.572;2023-06-01T09:25:15;100623.59;;;16.22;100.00
7441;BME280;29616;51.950;8.572;2023-06-01T09:27:48;100622.22;;;16.26;100.00
7441;BME280;29616;51.950;8.572;2023-06-01T09:30:21;100611.53;;;16.31;100.00
7441;BME280;29616;51.950;8.572;2023-06-01T09:33:09;100610.97;;;16.35;100.00
7441;BME280;29616;51.950;8.572;2023-06-01T09:35:42;100605.47;;;16.35;100.00
7441;BME280;29616;51.950;8.572;2023-06-01T09:38:21;100611.13;;;16.42;100.00
7441;BME280;29616;51.950;8.572;2023-06-01T09:41:00;100614.31;;;16.23;100.00
7441;BME280;29616;51.950;8.572;2023-06-01T09:43:34;100597.56;;;16.24;100.00
7441;BME280;29616;51.950;8.572;2023-06-01T09:46:07;100596.94;;;16.61;100.00
7441;BME280;29616;51.950;8.572;2023-06-01T09:48:36;100603.50;;;16.52;100.00
7441;BME280;29616;51.950;8.572;2023-06-01T09:51:21;100594.47;;;16.27;100.00
7441;BME280;29616;51.950;8.572;2023-06-01T09:53:50;100602.78;;;17.20;100.00
7441;BME280;29616;51.950;8.572;2023-06-01T09:56:20;100598.75;;;17.30;100.00
7441;BME280;29616;51.950;8.572;2023-06-01T09:58:57;100582.59;;;17.19;100.00
7441;BME280;29616;51.950;8.572;2023-06-01T10:01:29;100584.38;;;17.58;100.00
7441;BME280;29616;51.950;8.572;2023-06-01T10:04:01;100588.53;;;17.76;100.00
7441;BME280;29616;51.950;8.572;2023-06-01T10:06:39;100598.94;;;17.89;100.00
7441;BME280;29616;51.950;8.572;2023-06-01T10:09:11;100588.88;;;17.96;100.00
7441;BME280;29616;51.950;8.572;2023-06-01T10:11:45;100579.09;;;17.71;100.00
7441;BME280;29616;51.950;8.572;2023-06-01T10:14:15;100583.63;;;17.41;100.00
7441;BME280;29616;51.950;8.572;2023-06-01T10:16:49;100592.97;;;17.63;100.00
7441;BME280;29616;51.950;8.572;2023-06-01T10:19:21;100593.56;;;17.58;100.00
7441;BME280;29616;51.950;8.572;2023-06-01T10:21:51;100588.81;;;17.21;100.00
7441;BME280;29616;51.950;8.572;2023-06-01T10:24:22;100584.50;;;17.41;100.00
7441;BME280;29616;51.950;8.572;2023-06-01T10:27:01;100580.25;;;16.55;100.00
7441;BME280;29616;51.950;8.572;2023-06-01T10:29:35;100579.72;;;17.13;100.00
7441;BME280;29616;51.950;8.572;2023-06-01T10:32:41;100582.88;;;17.32;100.00
7441;BME280;29616;51.950;8.572;2023-06-01T10:36:01;100576.47;;;17.54;100.00
7441;BME280;29616;51.950;8.572;2023-06-01T10:38:35;100574.75;;;17.91;100.00
7441;BME280;29616;51.950;8.572;2023-06-01T10:41:25;100583.72;;;18.07;100.00
7441;BME280;29616;51.950;8.572;2023-06-01T10:43:55;100583.22;;;17.89;100.00
7441;BME280;29616;51.950;8.572;2023-06-01T10:46:36;100578.84;;;17.80;100.00
7441;BME280;29616;51.950;8.572;2023-06-01T10:49:11;100578.16;;;17.78;100.00
7441;BME280;29616;51.950;8.572;2023-06-01T10:51:42;100579.22;;;17.32;100.00
7441;BME280;29616;51.950;8.572;2023-06-01T10:54:29;100585.50;;;17.03;100.00
7441;BME280;29616;51.950;8.572;2023-06-01T10:57:24;100585.50;;;17.03;100.00
7441;BME280;29616;51.950;8.572;2023-06-01T11:00:16;100576.81;;;16.83;100.00
7441;BME280;29616;51.950;8.572;2023-06-01T11:02:55;100574.53;;;16.48;100.00
7441;BME280;29616;51.950;8.572;2023-06-01T11:05:41;100573.94;;;17.00;100.00
7441;BME280;29616;51.950;8.572;2023-06-01T11:08:51;100574.31;;;17.19;100.00
7441;BME280;29616;51.950;8.572;2023-06-01T11:12:00;100589.41;;;17.54;100.00
7441;BME280;29616;51.950;8.572;2023-06-01T11:14:30;100581.06;;;17.62;100.00
7441;BME280;29616;51.950;8.572;2023-06-01T11:17:26;100562.69;;;17.69;100.00
7441;BME280;29616;51.950;8.572;2023-06-01T11:20:04;100578.19;;;18.07;100.00
7441;BME280;29616;51.950;8.572;2023-06-01T11:22:38;100575.41;;;18.07;100.00
7441;BME280;29616;51.950;8.572;2023-06-01T11:25:11;100581.59;;;17.80;100.00
7441;BME280;29616;51.950;8.572;2023-06-01T11:27:46;100577.44;;;17.39;100.00
7441;BME280;29616;51.950;8.572;2023-06-01T11:30:19;100561.78;;;17.54;100.00
7441;BME280;29616;51.950;8.572;2023-06-01T11:32:51;100574.56;;;17.55;100.00
7441;BME280;29616;51.950;8.572;2023-06-01T11:35:24;100550.50;;;17.64;100.00
7441;BME280;29616;51.950;8.572;2023-06-01T11:37:55;100568.81;;;17.79;100.00
7441;BME280;29616;51.950;8.572;2023-06-01T11:40:24;100571.28;;;17.74;100.00
7441;BME280;29616;51.950;8.572;2023-06-01T11:43:01;100577.09;;;17.79;100.00
7441;BME280;29616;51.950;8.572;2023-06-01T11:45:31;100565.31;;;18.00;100.00
7441;BME280;29616;51.950;8.572;2023-06-01T11:48:10;100567.69;;;18.03;100.00
7441;BME280;29616;51.950;8.572;2023-06-01T11:50:46;100557.19;;;18.42;100.00
7441;BME280;29616;51.950;8.572;2023-06-01T11:53:16;100562.56;;;18.14;100.00
7441;BME280;29616;51.950;8.572;2023-06-01T11:55:48;100571.50;;;18.02;100.00
7441;BME280;29616;51.950;8.572;2023-06-01T11:58:23;100561.00;;;17.97;100.00
7441;BME280;29616;51.950;8.572;2023-06-01T12:00:52;100563.22;;;18.16;100.00
7441;BME280;29616;51.950;8.572;2023-06-01T12:03:23;100560.84;;;17.99;100.00
7441;BME280;29616;51.950;8.572;2023-06-01T12:05:55;100558.00;;;17.55;100.00
7441;BME280;29616;51.950;8.572;2023-06-01T12:08:25;100558.34;;;17.75;100.00
7441;BME280;29616;51.950;8.572;2023-06-01T12:10:58;100565.78;;;17.29;100.00
7441;BME280;29616;51.950;8.572;2023-06-01T12:13:28;100552.66;;;17.31;100.00
7441;BME280;29616;51.950;8.572;2023-06-01T12:15:59;100558.34;;;17.75;100.00
7441;BME280;29616;51.950;8.572;2023-06-01T12:18:47;100532.69;;;18.10;100.00
7441;BME280;29616;51.950;8.572;2023-06-01T12:21:18;100552.72;;;18.27;100.00
7441;BME280;29616;51.950;8.572;2023-06-01T12:23:49;100555.06;;;17.86;100.00
7441;BME280;29616;51.950;8.572;2023-06-01T12:26:21;100552.09;;;17.58;100.00
7441;BME280;29616;51.950;8.572;2023-06-01T12:28:52;100543.97;;;17.56;100.00
7441;BME280;29616;51.950;8.572;2023-06-01T12:31:27;100550.59;;;17.47;100.00
7441;BME280;29616;51.950;8.572;2023-06-01T12:33:57;100548.84;;;17.54;100.00
7441;BME280;29616;51.950;8.572;2023-06-01T12:36:33;100545.91;;;17.71;100.00
7441;BME280;29616;51.950;8.572;2023-06-01T12:39:03;100542.72;;;18.11;100.00
7441;BME280;29616;51.950;8.572;2023-06-01T12:41:32;100554.41;;;17.69;100.00
7441;BME280;29616;51.950;8.572;2023-06-01T12:44:02;100539.44;;;17.41;100.00
7441;BME280;29616;51.950;8.572;2023-06-01T12:46:30;100547.13;;;17.53;100.00
7441;BME280;29616;51.950;8.572;2023-06-01T12:49:12;100541.63;;;17.68;100.00
7441;BME280;29616;51.950;8.572;2023-06-01T12:51:42;100550.56;;;17.70;100.00
7441;BME280;29616;51.950;8.572;2023-06-01T12:54:13;100541.56;;;18.05;100.00
7441;BME280;29616;51.950;8.572;2023-06-01T12:56:43;100544.13;;;18.22;100.00
7441;BME280;29616;51.950;8.572;2023-06-01T12:59:13;100548.22;;;18.40;100.00
7441;BME280;29616;51.950;8.572;2023-06-01T13:01:41;100550.88;;;18.63;100.00
7441;BME280;29616;51.950;8.572;2023-06-01T13:04:11;100538.41;;;18.38;100.00
7441;BME280;29616;51.950;8.572;2023-06-01T13:06:44;100548.03;;;18.56;100.00
7441;BME280;29616;51.950;8.572;2023-06-01T13:09:14;100545.97;;;18.80;100.00
7441;BME280;29616;51.950;8.572;2023-06-01T13:11:44;100533.28;;;19.06;100.00
7441;BME280;29616;51.950;8.572;2023-06-01T13:14:13;100532.00;;;18.37;100.00
7441;BME280;29616;51.950;8.572;2023-06-01T13:16:43;100532.50;;;18.41;100.00
7441;BME280;29616;51.950;8.572;2023-06-01T13:19:11;100535.66;;;19.30;100.00